createdAt,value
2023-01-04T00:00:39.183Z,69.25
2023-01-04T00:03:41.046Z,69.83
2023-01-04T00:06:42.508Z,70.02
2023-01-04T00:09:43.902Z,70.42
2023-01-04T00:12:45.363Z,69.72
2023-01-04T00:15:46.785Z,69.93
2023-01-04T00:18:49.393Z,68.96
2023-01-04T00:21:51.854Z,69.85
2023-01-04T00:24:53.534Z,70.27
2023-01-04T00:27:54.963Z,70.36
2023-01-04T00:30:56.383Z,69.82
2023-01-04T00:34:00.371Z,68.66
2023-01-04T00:37:01.812Z,68.52
2023-01-04T00:40:03.804Z,68.66
2023-01-04T00:43:05.196Z,69.11
2023-01-04T00:46:11.397Z,69.89
2023-01-04T00:49:13.532Z,69.88
2023-01-04T00:52:14.902Z,70.50
2023-01-04T00:55:16.422Z,69.89
2023-01-04T00:58:17.886Z,69.56
2023-01-04T01:01:19.485Z,69.42
2023-01-04T01:04:23.416Z,70.31
2023-01-04T01:07:24.942Z,70.18
2023-01-04T01:10:26.317Z,70.27
2023-01-04T01:13:27.735Z,69.78
2023-01-04T01:16:53.847Z,70.38
2023-01-04T01:19:50.787Z,69.99
2023-01-04T01:22:52.176Z,69.44
2023-01-04T01:25:53.550Z,69.95
2023-01-04T01:28:55.120Z,70.29
2023-01-04T01:31:56.633Z,71.92
2023-01-04T01:34:58.055Z,72.68
2023-01-04T01:37:59.531Z,71.96
2023-01-04T01:41:00.959Z,71.96
2023-01-04T01:44:40.091Z,71.92
2023-01-04T01:47:47.466Z,72.71
2023-01-04T01:50:54.101Z,72.04
2023-01-04T01:54:01.842Z,71.95
2023-01-04T01:57:05.898Z,71.57
2023-01-04T02:00:12.373Z,71.31
2023-01-04T02:03:21.676Z,71.67
2023-01-04T02:06:32.837Z,71.35
2023-01-04T02:09:34.318Z,71.12
2023-01-04T02:12:35.867Z,72.36
2023-01-04T02:16:03.660Z,71.13
2023-01-04T02:19:14.167Z,70.95
2023-01-04T02:22:42.609Z,70.98
2023-01-04T02:26:02.642Z,70.92
2023-01-04T02:29:19.118Z,71.56
2023-01-04T02:32:33.341Z,71.55
2023-01-04T02:35:43.414Z,70.96
2023-01-04T02:38:54.015Z,71.47
2023-01-04T02:42:12.029Z,70.66
2023-01-04T02:45:17.937Z,70.45
2023-01-04T02:48:37.952Z,71.30
2023-01-04T02:51:39.484Z,70.18
2023-01-04T02:54:43.150Z,70.74
2023-01-04T02:57:58.316Z,70.29
2023-01-04T03:01:49.400Z,70.19
2023-01-04T03:05:31.233Z,69.93
2023-01-04T03:08:42.633Z,70.23
2023-01-04T03:12:22.775Z,69.81
2023-01-04T03:15:29.962Z,70.66
2023-01-04T03:18:36.094Z,70.80
2023-01-04T03:21:42.462Z,70.25
2023-01-04T03:25:02.182Z,70.90
2023-01-04T03:28:24.462Z,71.10
2023-01-04T03:31:53.045Z,70.70
2023-01-04T03:35:13.587Z,70.19
2023-01-04T03:39:12.612Z,69.19
2023-01-04T03:42:41.008Z,69.83
2023-01-04T03:46:10.112Z,69.81
2023-01-04T03:49:27.964Z,69.80
2023-01-04T03:52:31.900Z,69.45
2023-01-04T03:55:35.345Z,69.88
2023-01-04T03:58:37.915Z,69.05
2023-01-04T04:01:41.571Z,69.06
2023-01-04T04:05:02.137Z,68.80
2023-01-04T04:08:22.430Z,68.69
2023-01-04T04:11:32.994Z,68.64
2023-01-04T04:14:34.364Z,68.33
2023-01-04T04:17:35.830Z,67.98
2023-01-04T04:20:37.468Z,67.74
2023-01-04T04:23:38.950Z,68.13
2023-01-04T04:26:40.363Z,67.89
2023-01-04T04:29:41.769Z,67.16
2023-01-04T04:32:43.238Z,67.91
2023-01-04T04:35:44.640Z,67.01
2023-01-04T04:38:46.039Z,67.01
2023-01-04T04:41:47.498Z,67.24
2023-01-04T04:44:48.922Z,66.73
2023-01-04T04:47:50.423Z,66.50
2023-01-04T04:50:51.817Z,66.57
2023-01-04T04:53:53.215Z,65.95
2023-01-04T04:56:54.641Z,65.90
2023-01-04T04:59:56.032Z,65.69
2023-01-04T05:03:01.735Z,65.50
2023-01-04T05:06:03.506Z,64.86
2023-01-04T05:09:04.874Z,65.54
2023-01-04T05:12:24.850Z,65.06
2023-01-04T05:15:35.411Z,65.01
2023-01-04T05:18:36.817Z,65.21
2023-01-04T05:21:38.245Z,65.05
2023-01-04T05:24:39.663Z,64.82
2023-01-04T05:27:41.253Z,64.76
2023-01-04T05:30:51.944Z,64.11
2023-01-04T05:33:53.333Z,64.20
2023-01-04T05:36:55.003Z,64.67
2023-01-04T05:39:56.501Z,64.92
2023-01-04T05:42:57.914Z,64.85
2023-01-04T05:45:59.414Z,65.29
2023-01-04T05:49:00.847Z,65.70
2023-01-04T05:52:02.339Z,65.85
2023-01-04T05:55:04.063Z,65.15
2023-01-04T05:58:05.467Z,64.80
2023-01-04T06:01:07.732Z,64.68
2023-01-04T06:04:09.205Z,65.85
2023-01-04T06:07:10.641Z,65.54
2023-01-04T06:10:13.139Z,65.29
2023-01-04T06:13:14.551Z,65.42
2023-01-04T06:16:15.994Z,64.78
2023-01-04T06:19:17.519Z,64.18
2023-01-04T06:22:20.193Z,64.57
2023-01-04T06:25:21.597Z,65.43
2023-01-04T06:28:22.981Z,66.04
2023-01-04T06:31:24.449Z,66.94
2023-01-04T06:34:30.839Z,67.84
2023-01-04T06:37:32.971Z,68.51
2023-01-04T06:40:34.391Z,68.61
2023-01-04T06:43:36.014Z,68.15
2023-01-04T06:46:37.500Z,68.54
2023-01-04T06:49:38.943Z,67.31
2023-01-04T06:52:41.301Z,66.77
2023-01-04T06:55:43.637Z,66.57
2023-01-04T06:58:45.010Z,66.62
2023-01-04T07:01:46.490Z,67.30
2023-01-04T07:04:48.018Z,67.08
2023-01-04T07:07:49.587Z,66.38
2023-01-04T07:10:51.091Z,66.20
2023-01-04T07:13:52.748Z,65.63
2023-01-04T07:16:54.347Z,65.10
2023-01-04T07:19:55.820Z,64.80
2023-01-04T07:22:57.242Z,66.25
2023-01-04T07:26:02.873Z,65.86
2023-01-04T07:29:17.168Z,66.69
2023-01-04T07:32:18.857Z,66.03
2023-01-04T07:35:21.273Z,66.38
2023-01-04T07:38:22.614Z,66.39
2023-01-04T07:41:24.027Z,66.64
2023-01-04T07:44:27.679Z,67.66
2023-01-04T07:47:29.336Z,67.15
2023-01-04T07:50:30.792Z,67.28
2023-01-04T07:53:33.945Z,67.25
2023-01-04T07:56:35.350Z,68.00
2023-01-04T07:59:36.809Z,67.36
2023-01-04T08:02:38.783Z,67.63
2023-01-04T08:05:41.909Z,67.20
2023-01-04T08:08:43.781Z,65.84
2023-01-04T08:11:45.848Z,66.43
2023-01-04T08:14:47.264Z,66.48
2023-01-04T08:17:48.643Z,66.22
2023-01-04T08:20:54.893Z,66.10
2023-01-04T08:23:59.813Z,64.96
2023-01-04T08:27:01.284Z,64.33
2023-01-04T08:30:03.076Z,64.41
2023-01-04T08:33:13.548Z,64.97
2023-01-04T08:36:26.521Z,63.56
2023-01-04T08:39:33.191Z,64.10
2023-01-04T08:42:34.672Z,62.88
2023-01-04T08:45:36.327Z,62.61
2023-01-04T08:48:38.658Z,62.79
2023-01-04T08:51:40.164Z,62.24
2023-01-04T08:54:41.555Z,62.78
2023-01-04T08:57:43.142Z,61.44
2023-01-04T09:00:44.592Z,61.21
2023-01-04T09:03:46.021Z,61.17
2023-01-04T09:06:47.433Z,61.12
2023-01-04T09:09:48.820Z,61.74
2023-01-04T09:12:50.287Z,59.35
2023-01-04T09:15:51.736Z,59.75
2023-01-04T09:18:54.957Z,59.78
2023-01-04T09:21:56.380Z,60.20
2023-01-04T09:24:57.814Z,59.34
2023-01-04T09:27:59.237Z,59.67
2023-01-04T09:31:07.501Z,58.78
2023-01-04T09:34:14.527Z,58.75
2023-01-04T09:37:17.074Z,59.29
2023-01-04T09:40:22.578Z,58.68
2023-01-04T09:43:25.404Z,58.90
2023-01-04T09:46:41.584Z,59.15
2023-01-04T09:49:57.747Z,58.69
2023-01-04T09:53:11.830Z,58.68
2023-01-04T09:56:19.321Z,58.78
2023-01-04T09:59:27.098Z,58.49
2023-01-04T10:02:42.078Z,58.35
2023-01-04T10:05:43.698Z,58.60
2023-01-04T10:08:45.142Z,58.48
2023-01-04T10:11:58.420Z,59.23
2023-01-04T10:15:21.022Z,59.14
2023-01-04T10:22:20.116Z,58.46
2023-01-04T10:25:34.390Z,59.03
2023-01-04T10:29:05.459Z,58.74
2023-01-04T10:32:22.506Z,58.72
2023-01-04T10:35:27.070Z,58.58
2023-01-04T10:38:36.350Z,58.22
2023-01-04T10:41:43.704Z,58.32
2023-01-04T10:44:54.802Z,58.71
2023-01-04T10:48:08.128Z,57.83
2023-01-04T10:51:15.008Z,58.48
2023-01-04T10:54:26.277Z,57.28
2023-01-04T10:57:43.580Z,57.63
2023-01-04T11:00:51.448Z,57.54
2023-01-04T11:04:03.239Z,57.76
2023-01-04T11:07:15.481Z,56.88
2023-01-04T11:10:23.957Z,57.62
2023-01-04T11:13:26.028Z,57.52
2023-01-04T11:16:29.847Z,57.55
2023-01-04T11:19:33.565Z,57.28
2023-01-04T11:22:50.133Z,57.37
2023-01-04T11:26:05.388Z,57.92
2023-01-04T11:29:15.883Z,57.66
2023-01-04T11:32:33.758Z,56.99
2023-01-04T11:35:42.928Z,57.88
2023-01-04T11:38:56.208Z,57.73
2023-01-04T11:42:04.386Z,57.90
2023-01-04T11:45:06.307Z,57.40
2023-01-04T11:48:15.072Z,57.65
2023-01-04T11:51:19.284Z,58.61
2023-01-04T11:54:20.738Z,58.14
2023-01-04T11:57:22.236Z,58.42
2023-01-04T12:00:23.953Z,58.38
2023-01-04T12:03:37.613Z,58.98
2023-01-04T12:06:56.686Z,58.89
2023-01-04T12:09:59.771Z,58.30
2023-01-04T12:13:02.343Z,58.49
2023-01-04T12:16:17.222Z,59.00
2023-01-04T12:19:20.051Z,58.52
2023-01-04T12:22:31.800Z,58.73
2023-01-04T12:25:39.444Z,58.84
2023-01-04T12:28:58.221Z,58.17
2023-01-04T12:32:05.699Z,58.87
2023-01-04T12:35:49.673Z,59.19
2023-01-04T12:38:56.765Z,58.81
2023-01-04T12:42:01.212Z,58.70
2023-01-04T12:45:13.787Z,57.84
2023-01-04T12:48:45.941Z,58.41
2023-01-04T12:52:20.483Z,58.58
2023-01-04T12:55:33.474Z,59.75
2023-01-04T12:59:06.908Z,58.84
2023-01-04T13:02:16.936Z,58.46
2023-01-04T13:05:55.037Z,58.14
2023-01-04T13:08:41.935Z,58.07
2023-01-04T13:12:29.116Z,58.68
2023-01-04T13:15:36.593Z,59.39
2023-01-04T13:18:45.578Z,59.32
2023-01-04T13:21:48.300Z,59.31
2023-01-04T13:24:50.959Z,58.71
2023-01-04T13:28:03.611Z,59.55
2023-01-04T13:31:05.194Z,59.18
2023-01-04T13:34:16.192Z,60.10
2023-01-04T13:37:35.927Z,59.85
2023-01-04T13:40:49.055Z,59.55
2023-01-04T13:44:05.111Z,59.81
2023-01-04T13:47:09.015Z,60.18
2023-01-04T13:50:33.814Z,60.14
2023-01-04T13:53:35.284Z,59.51
2023-01-04T13:56:36.677Z,59.63
2023-01-04T13:59:38.076Z,59.78
2023-01-04T14:02:39.783Z,59.69
2023-01-04T14:05:48.095Z,59.54
2023-01-04T14:09:02.981Z,59.71
2023-01-04T14:12:16.631Z,59.65
2023-01-04T14:15:22.975Z,59.68
2023-01-04T14:18:27.099Z,59.47
2023-01-04T14:21:37.622Z,59.76
2023-01-04T14:25:08.495Z,59.84
2023-01-04T14:28:18.906Z,60.01
2023-01-04T14:31:21.841Z,59.64
2023-01-04T14:34:23.436Z,59.80
2023-01-04T14:37:24.989Z,59.37
2023-01-04T14:40:31.353Z,58.71
2023-01-04T14:43:34.669Z,60.24
2023-01-04T14:46:36.319Z,59.75
2023-01-04T14:49:37.735Z,59.82
2023-01-04T14:52:39.458Z,59.33
2023-01-04T14:55:40.930Z,59.27
2023-01-04T14:58:43.424Z,59.65
2023-01-04T15:01:44.960Z,59.24
2023-01-04T15:04:46.502Z,59.48
2023-01-04T15:07:48.084Z,59.37
2023-01-04T15:10:54.552Z,59.78
2023-01-04T15:13:59.456Z,59.26
2023-01-04T15:17:00.850Z,59.36
2023-01-04T15:20:02.536Z,59.35
2023-01-04T15:23:03.998Z,59.97
2023-01-04T15:26:07.240Z,60.19
2023-01-04T15:29:09.683Z,59.33
2023-01-04T15:32:11.116Z,58.92
2023-01-04T15:35:16.764Z,59.43
2023-01-04T15:38:18.670Z,59.28
2023-01-04T15:41:38.842Z,58.97
2023-01-04T15:44:40.254Z,59.03
2023-01-04T15:47:41.659Z,59.60
2023-01-04T15:50:43.133Z,58.97
2023-01-04T15:53:44.625Z,59.28
2023-01-04T15:56:45.991Z,58.87
2023-01-04T15:59:48.797Z,59.33
2023-01-04T16:02:50.302Z,59.38
2023-01-04T16:05:51.819Z,60.16
2023-01-04T16:08:53.378Z,59.39
2023-01-04T16:12:13.368Z,59.44
2023-01-04T16:15:17.770Z,59.55
2023-01-04T16:18:19.316Z,59.63
2023-01-04T16:21:27.521Z,60.36
2023-01-04T16:25:08.588Z,60.47
2023-01-04T16:27:50.279Z,60.38
2023-01-04T16:30:54.195Z,59.73
2023-01-04T16:33:55.616Z,60.47
2023-01-04T16:36:57.010Z,60.62
2023-01-04T16:40:07.135Z,60.72
2023-01-04T16:43:09.888Z,61.04
2023-01-04T16:46:26.018Z,60.96
2023-01-04T16:49:27.455Z,61.07
2023-01-04T16:52:30.032Z,62.65
2023-01-04T16:55:31.499Z,62.39
2023-01-04T16:58:33.317Z,62.34
2023-01-04T17:01:38.410Z,61.54
2023-01-04T17:04:49.312Z,62.85
2023-01-04T17:07:50.685Z,62.49
2023-01-04T17:10:52.132Z,62.66
2023-01-04T17:13:54.483Z,61.71
2023-01-04T17:16:56.496Z,63.18
2023-01-04T17:19:57.903Z,62.10
2023-01-04T17:22:59.625Z,62.50
2023-01-04T17:26:04.436Z,62.68
2023-01-04T17:29:05.961Z,63.02
2023-01-04T17:32:07.420Z,63.30
2023-01-04T17:35:08.912Z,62.16
2023-01-04T17:38:10.508Z,62.19
2023-01-04T17:41:16.453Z,62.25
2023-01-04T17:44:17.864Z,62.46
2023-01-04T17:47:19.583Z,62.51
2023-01-04T17:50:21.635Z,62.75
2023-01-04T17:53:23.430Z,62.70
2023-01-04T17:56:25.984Z,62.48
2023-01-04T17:59:27.403Z,62.08
2023-01-04T18:02:28.833Z,62.19
2023-01-04T18:05:39.396Z,62.17
2023-01-04T18:08:52.172Z,61.95
2023-01-04T18:11:53.674Z,62.43
2023-01-04T18:14:55.097Z,62.54
2023-01-04T18:17:56.490Z,61.84
2023-01-04T18:20:59.224Z,62.56
2023-01-04T18:27:26.222Z,62.85
2023-01-04T18:30:27.990Z,62.71
2023-01-04T18:33:29.396Z,62.17
2023-01-04T18:36:32.617Z,62.60
2023-01-04T18:39:35.643Z,62.43
2023-01-04T18:42:37.252Z,62.39
2023-01-04T18:45:41.961Z,63.28
2023-01-04T18:48:43.511Z,62.06
2023-01-04T18:51:44.952Z,62.06
2023-01-04T18:54:47.831Z,62.43
2023-01-04T18:57:49.575Z,62.43
2023-01-04T19:01:02.409Z,61.56
2023-01-04T19:04:04.660Z,61.88
2023-01-04T19:07:06.120Z,61.22
2023-01-04T19:10:08.262Z,61.10
2023-01-04T19:13:09.638Z,61.92
2023-01-04T19:16:13.374Z,61.48
2023-01-04T19:19:15.074Z,61.28
2023-01-04T19:22:16.468Z,61.52
2023-01-04T19:25:20.782Z,61.83
2023-01-04T19:28:24.644Z,62.12
2023-01-04T19:31:26.061Z,61.18
2023-01-04T19:34:27.985Z,61.03
2023-01-04T19:37:29.697Z,61.72
2023-01-04T19:40:31.113Z,61.76
2023-01-04T19:43:33.517Z,61.50
2023-01-04T19:46:37.530Z,61.53
2023-01-04T19:49:38.935Z,62.30
2023-01-04T19:52:40.400Z,61.69
2023-01-04T19:55:42.174Z,62.33
2023-01-04T19:58:43.838Z,62.78
2023-01-04T20:01:45.281Z,61.73
2023-01-04T20:04:46.728Z,62.22
2023-01-04T20:07:49.130Z,61.89
2023-01-04T20:10:55.034Z,62.30
2023-01-04T20:13:56.547Z,62.94
2023-01-04T20:16:57.983Z,62.72
2023-01-04T20:19:59.510Z,62.55
2023-01-04T20:23:00.897Z,62.90
2023-01-04T20:26:11.240Z,63.04
2023-01-04T20:29:13.095Z,63.01
2023-01-04T20:32:14.494Z,63.31
2023-01-04T20:35:15.921Z,62.94
2023-01-04T20:38:17.420Z,63.08
2023-01-04T20:41:22.763Z,63.11
2023-01-04T20:44:24.223Z,63.29
2023-01-04T20:47:25.615Z,63.25
2023-01-04T20:50:26.991Z,64.07
2023-01-04T20:53:30.043Z,63.34
2023-01-04T20:56:37.329Z,63.78
2023-01-04T20:59:38.774Z,63.29
2023-01-04T21:02:40.385Z,63.34
2023-01-04T21:05:44.537Z,63.18
2023-01-04T21:08:46.399Z,63.57
2023-01-04T21:11:48.064Z,63.44
2023-01-04T21:14:49.472Z,63.88
2023-01-04T21:17:50.888Z,64.10
2023-01-04T21:20:53.039Z,64.53
2023-01-04T21:23:57.881Z,63.83
2023-01-04T21:27:00.474Z,63.35
2023-01-04T21:30:02.104Z,63.74
2023-01-04T21:33:03.593Z,63.79
2023-01-04T21:36:25.468Z,63.94
2023-01-04T21:39:26.844Z,64.27
2023-01-04T21:42:28.288Z,63.44
2023-01-04T21:45:29.696Z,63.54
2023-01-04T21:48:31.305Z,63.85
2023-01-04T21:51:37.159Z,64.08
2023-01-04T21:54:39.290Z,63.02
2023-01-04T21:57:40.995Z,62.87
2023-01-04T22:00:42.899Z,63.83
2023-01-04T22:03:45.034Z,64.78
2023-01-04T22:06:46.545Z,65.47
2023-01-04T22:09:52.364Z,65.66
2023-01-04T22:12:56.936Z,64.54
2023-01-04T22:15:58.431Z,64.46
2023-01-04T22:18:59.929Z,63.92
2023-01-04T22:22:01.342Z,64.34
2023-01-04T22:25:02.874Z,64.67
2023-01-04T22:28:04.560Z,64.45
2023-01-04T22:31:11.028Z,63.91
2023-01-04T22:34:12.685Z,64.35
2023-01-04T22:37:14.069Z,63.55
2023-01-04T22:40:15.814Z,63.66
2023-01-04T22:43:17.256Z,64.45
2023-01-04T22:46:18.735Z,63.58
2023-01-04T22:49:20.220Z,63.77
2023-01-04T22:52:21.724Z,64.30
2023-01-04T22:55:23.257Z,64.52
2023-01-04T22:58:24.661Z,65.03
2023-01-04T23:01:29.950Z,64.49
2023-01-04T23:04:31.435Z,64.30
2023-01-04T23:07:32.967Z,64.46
2023-01-04T23:10:37.468Z,64.71
2023-01-04T23:13:38.919Z,64.96
2023-01-04T23:16:40.579Z,65.54
2023-01-04T23:19:42.059Z,65.98
2023-01-04T23:22:43.534Z,65.88
2023-01-04T23:25:44.978Z,66.23
2023-01-04T23:28:47.195Z,65.45
2023-01-04T23:31:48.866Z,65.67
2023-01-04T23:34:51.224Z,65.33
2023-01-04T23:37:52.633Z,65.02
2023-01-04T23:40:54.136Z,65.11
2023-01-04T23:43:55.585Z,64.67
2023-01-04T23:47:08.035Z,64.85
2023-01-04T23:50:09.574Z,64.68
2023-01-04T23:53:10.964Z,66.14
2023-01-04T23:56:15.917Z,66.41
2023-01-04T23:59:17.890Z,66.87
